Thunderstorms From: 26-05-2018 21:24 Until: 27-05-2018 15:00 warning for: Thunderstorms Level: Yellow info button

Although rather usual in this region, locally or potentially dangerous phenomena are expected. (such as local winds, summer thunderstorms, rising streams or high waves) Be aware and pay attention to the latest weather updates, especially if you carry out activities exposed to weather or close to a stream or shoreline. 


Meteo18 Weather Cam more information Meteo18 Weather Cam


warning for Thunderstorms more information blitzortung!


Rain radar more information rain snow radar


Visit our other weather sites:

Template documentation
and downloads

And another site



Weather Underground History page Text

Daily Summary for September 29, 2016 Units:  Metric    English   Both
« Previous Day
Next Day »
Daily Weekly Monthly Yearly Custom
  High: Low: Average:
Temperature: -17.8 °C -12.6 °C -7.9 °C
Dew Point: -17.8 °C -13.4 °C -12 °C
Humidity: Humidity % 37 % 66 %
Wind Speed: 0 km/h 0 km/h 7.1 km/h
Wind Gust: 0 km/h - -
Wind:- - SW
Pressure: 0 hPa 34418.7 hPa -
Precipitation: 0 mm    
Historical Graphs
 
 
Tabular Data for September 29, 2016
Time Temperature Dew Point Pressure Wind Wind Speed Wind Gust Humidity Rainfall Rate (Hourly)
-17.8 °C -17.8 °C 0 hPa Calm     Humidity % 0 mm
00:02 -9.6 °C -11.3 °C 34760.7 hPa Calm     82 % 0 mm
00:12 -9.8 °C -11.3 °C 34760.7 hPa Calm     84 % 0 mm
00:17 -9.9 °C -11.4 °C 34760.7 hPa Calm     84 % 0 mm
00:22 -9.9 °C -11.4 °C 34760.7 hPa Calm     84 % 0 mm
00:27 -9.9 °C -11.4 °C 34760.7 hPa Calm     84 % 0 mm
00:37 -10.1 °C -11.6 °C 34760.7 hPa Calm     84 % 0 mm
00:42 -10.1 °C -11.3 °C 34760.7 hPa Calm     86 % 0 mm
00:52 -10.1 °C -11.4 °C 34760.7 hPa Calm     86 % 0 mm
00:57 -10.1 °C -11.4 °C 34750.5 hPa Calm     86 % 0 mm
01:02 -10.2 °C -11.3 °C 34750.5 hPa Calm     87 % 0 mm
01:07 -10.2 °C -11.3 °C 34750.5 hPa Calm     88 % 0 mm
01:12 -10.2 °C -11.4 °C 34750.5 hPa Calm     87 % 0 mm
01:17 -10.3 °C -11.4 °C 34750.5 hPa Calm     87 % 0 mm
01:22 -10.3 °C -11.4 °C 34750.5 hPa Calm     88 % 0 mm
01:27 -10.4 °C -11.4 °C 34740.4 hPa Calm     89 % 0 mm
01:32 -10.4 °C -11.4 °C 34750.5 hPa Calm     89 % 0 mm
01:42 -10.5 °C -11.6 °C 34740.4 hPa Calm     88 % 0 mm
01:47 -10.6 °C -11.6 °C 34740.4 hPa Calm     88 % 0 mm
01:52 -10.6 °C -11.7 °C 34740.4 hPa Calm     88 % 0 mm
01:57 -10.7 °C -11.7 °C 34740.4 hPa Calm     88 % 0 mm
02:02 -10.7 °C -11.7 °C 34740.4 hPa Calm     89 % 0 mm
02:12 -10.6 °C -11.6 °C 34740.4 hPa Calm     89 % 0 mm
02:17 -10.6 °C -11.7 °C 34740.4 hPa Calm     88 % 0 mm
02:22 -10.7 °C -11.7 °C 34740.4 hPa Calm     89 % 0 mm
02:27 -10.7 °C -11.7 °C 34740.4 hPa Calm     89 % 0 mm
02:32 -10.7 °C -11.7 °C 34740.4 hPa Calm     89 % 0 mm
02:42 -10.7 °C -11.6 °C 34740.4 hPa Calm     90 % 0 mm
02:47 -10.8 °C -11.7 °C 34726.8 hPa Calm     90 % 0 mm
02:52 -10.8 °C -11.7 °C 34726.8 hPa Calm     90 % 0 mm
02:57 -10.9 °C -11.8 °C 34726.8 hPa Calm     90 % 0 mm
03:02 -11 °C -11.9 °C 34726.8 hPa Calm     90 % 0 mm
03:12 -11.1 °C -11.9 °C 34726.8 hPa Calm     91 % 0 mm
03:17 -11.2 °C -11.9 °C 34726.8 hPa Calm     91 % 0 mm
03:22 -11.2 °C -11.9 °C 34726.8 hPa Calm     92 % 0 mm
03:27 -11.1 °C -11.8 °C 34716.7 hPa Calm     92 % 0 mm
03:32 -11.2 °C -11.9 °C 34716.7 hPa Calm     92 % 0 mm
03:37 -11.2 °C -11.9 °C 34716.7 hPa Calm     92 % 0 mm
03:42 -11.3 °C -12.1 °C 34716.7 hPa Calm     91 % 0 mm
03:47 -11.3 °C -11.9 °C 34716.7 hPa Calm     93 % 0 mm
03:52 -11.3 °C -12 °C 34716.7 hPa Calm     92 % 0 mm
03:57 -11.2 °C -11.9 °C 34716.7 hPa Calm     92 % 0 mm
04:02 -11.3 °C -12.1 °C 34703.1 hPa Calm     91 % 0 mm
04:12 -11.3 °C -12.1 °C 34703.1 hPa Calm     92 % 0 mm
04:17 -11.4 °C -12.1 °C 34703.1 hPa Calm     92 % 0 mm
04:22 -11.5 °C -12.2 °C 34703.1 hPa Calm     92 % 0 mm
04:32 -11.7 °C -12.4 °C 34703.1 hPa Calm     92 % 0 mm
04:37 -11.7 °C -12.4 °C 34693 hPa Calm     92 % 0 mm
04:42 -11.7 °C -12.4 °C 34693 hPa Calm     92 % 0 mm
04:47 -11.8 °C -12.4 °C 34693 hPa Calm     93 % 0 mm
04:52 -11.8 °C -12.4 °C 34693 hPa Calm     93 % 0 mm
05:02 -11.9 °C -12.5 °C 34693 hPa Calm     93 % 0 mm
05:12 -11.8 °C -12.3 °C 34682.8 hPa Calm     94 % 0 mm
05:17 -11.8 °C -12.3 °C 34682.8 hPa Calm     94 % 0 mm
05:22 -11.8 °C -12.3 °C 34682.8 hPa Calm     94 % 0 mm
05:32 -11.9 °C -12.5 °C 34682.8 hPa Calm     93 % 0 mm
05:37 -12 °C -12.6 °C 34682.8 hPa Calm     93 % 0 mm
05:42 -12.1 °C -12.7 °C 34682.8 hPa Calm     93 % 0 mm
05:47 -12.1 °C -12.7 °C 34682.8 hPa Calm     93 % 0 mm
05:57 -12.1 °C -12.6 °C 34669.3 hPa Calm     94 % 0 mm
06:02 -12.1 °C -12.6 °C 34669.3 hPa Calm     94 % 0 mm
06:12 -12.2 °C -12.8 °C 34669.3 hPa Calm     93 % 0 mm
06:17 -12.3 °C -12.9 °C 34669.3 hPa Calm     93 % 0 mm
06:22 -12.3 °C -12.8 °C 34669.3 hPa Calm     94 % 0 mm
06:32 -12.3 °C -12.9 °C 34669.3 hPa Calm     93 % 0 mm
06:42 -12.4 °C -13.1 °C 34659.1 hPa Calm     92 % 0 mm
06:52 -12.4 °C -13.1 °C 34659.1 hPa Calm     92 % 0 mm
06:57 -12.4 °C -13.2 °C 34659.1 hPa Calm     91 % 0 mm
07:02 -12.5 °C -13.3 °C 34659.1 hPa Calm     91 % 0 mm
07:12 -12.5 °C -13.3 °C 34659.1 hPa Calm     91 % 0 mm
07:17 -12.5 °C -13.3 °C 34659.1 hPa Calm     91 % 0 mm
07:22 -12.6 °C -13.3 °C 34659.1 hPa Calm     91 % 0 mm
07:32 -12.6 °C -13.4 °C 34645.6 hPa Calm     91 % 0 mm
07:42 -12.6 °C -13.4 °C 34645.6 hPa Calm     91 % 0 mm
07:47 -12.6 °C -13.4 °C 34645.6 hPa Calm     91 % 0 mm
07:52 -12.6 °C -13.4 °C 34645.6 hPa Calm     91 % 0 mm
08:02 -12.6 °C -13.4 °C 34659.1 hPa Calm     91 % 0 mm
08:12 -12.6 °C -13.3 °C 34659.1 hPa Calm     91 % 0 mm
08:17 -12.3 °C -13.1 °C 34659.1 hPa Calm     91 % 0 mm
08:27 -11.8 °C -12.6 °C 34659.1 hPa Calm     91 % 0 mm
08:32 -11.5 °C -12.6 °C 34659.1 hPa Calm     88 % 0 mm
08:42 -11.6 °C -12.9 °C 34659.1 hPa Calm     85 % 0 mm
08:47 -11.6 °C -12.9 °C 34659.1 hPa Calm     85 % 0 mm
08:52 -11.6 °C -13 °C 34659.1 hPa Calm     84 % 0 mm
08:57 -11.6 °C -12.9 °C 34659.1 hPa Calm     85 % 0 mm
09:02 -11.5 °C -12.8 °C 34659.1 hPa Calm     86 % 0 mm
09:12 -11.4 °C -12.7 °C 34659.1 hPa Calm     86 % 0 mm
09:17 -11.3 °C -12.7 °C 34645.6 hPa Calm     85 % 0 mm
09:22 -11.2 °C -12.5 °C 34645.6 hPa Calm     85 % 0 mm
09:32 -10.6 °C -12.3 °C 34645.6 hPa Calm     82 % 0 mm
09:37 -10.5 °C -12.4 °C 34645.6 hPa SW 2.6 km/h   80 % 0 mm
09:42 -10.4 °C -12.4 °C 34645.6 hPa South 2.6 km/h 7.7 km/h 79 % 0 mm
09:52 -10.1 °C -12.3 °C 34645.6 hPa South 5.1 km/h 10.3 km/h 77 % 0 mm
09:57 -9.9 °C -12.3 °C 34645.6 hPa Calm   10.3 km/h 76 % 0 mm
10:02 -9.8 °C -12.3 °C 34645.6 hPa SSE 2.6 km/h 7.7 km/h 75 % 0 mm
10:12 -9.5 °C -12.2 °C 34645.6 hPa Calm   7.7 km/h 73 % 0 mm
10:17 -9.3 °C -12 °C 34645.6 hPa SSW 10.3 km/h 10.3 km/h 73 % 0 mm
10:22 -9.3 °C -12.1 °C 34645.6 hPa SW 7.7 km/h 10.3 km/h 72 % 0 mm
10:32 -8.9 °C -12 °C 34645.6 hPa South 5.1 km/h 10.3 km/h 70 % 0 mm
10:42 -8.4 °C -11.9 °C 34645.6 hPa SSE 2.6 km/h 15.6 km/h 67 % 0 mm
10:52 -8.1 °C -11.9 °C 34645.6 hPa SW 7.7 km/h 18.2 km/h 64 % 0 mm
11:02 -7.7 °C -11.8 °C 34635.4 hPa SW 12.9 km/h 20.8 km/h 62 % 0 mm
11:12 -7.1 °C -11.8 °C 34635.4 hPa SSW 7.7 km/h 20.8 km/h 58 % 0 mm
11:17 -6.8 °C -12 °C 34635.4 hPa SSW 7.7 km/h 20.8 km/h 55 % 0 mm
11:22 -6.6 °C -11.9 °C 34635.4 hPa SW 15.6 km/h 23.3 km/h 54 % 0 mm
11:27 -6.6 °C -11.9 °C 34625.2 hPa West 5.1 km/h 23.3 km/h 54 % 0 mm
11:32 -6.4 °C -12.1 °C 34625.2 hPa SW 15.6 km/h 23.3 km/h 52 % 0 mm
11:42 -6.2 °C -12.1 °C 34611.7 hPa SW 5.1 km/h 28.5 km/h 51 % 0 mm
11:47 -6.1 °C -11.9 °C 34611.7 hPa SSW 23.3 km/h 28.5 km/h 51 % 0 mm
11:52 -5.9 °C -11.9 °C 34611.7 hPa SW 5.1 km/h 33.6 km/h 50 % 0 mm
12:02 -5.7 °C -11.9 °C 34611.7 hPa SW 18.2 km/h 31.1 km/h 49 % 0 mm
12:12 -5.5 °C -11.9 °C 34601.5 hPa West 10.3 km/h 31.1 km/h 48 % 0 mm
12:17 -5.4 °C -12 °C 34601.5 hPa WSW 31.1 km/h 31.1 km/h 47 % 0 mm
12:22 -5.4 °C -11.8 °C 34601.5 hPa SW 18.2 km/h 33.6 km/h 48 % 0 mm
12:32 -5.2 °C -11.8 °C 34601.5 hPa South 18.2 km/h 33.6 km/h 47 % 0 mm
12:42 -5.2 °C -11.6 °C 34591.4 hPa WNW 10.3 km/h 31.1 km/h 48 % 0 mm
12:52 -4.9 °C -11.7 °C 34591.4 hPa WNW 18.2 km/h 31.1 km/h 46 % 0 mm
13:02 -4.8 °C -11.6 °C 34591.4 hPa SSW 20.8 km/h 41.4 km/h 46 % 0 mm
13:12 -4.6 °C -11.6 °C 34577.8 hPa WSW 20.8 km/h 41.4 km/h 45 % 0 mm
13:17 -4.6 °C -11.4 °C 34577.8 hPa SSW 20.8 km/h 36.2 km/h 46 % 0 mm
13:22 -4.6 °C -11.4 °C 34577.8 hPa WSW 10.3 km/h 36.2 km/h 46 % 0 mm
13:32 -4.4 °C -11.3 °C 34567.7 hPa SW 28.5 km/h 33.6 km/h 46 % 0 mm
13:37 -4.4 °C -11.3 °C 34567.7 hPa West 7.7 km/h 44.1 km/h 46 % 0 mm
13:42 -4.3 °C -11.2 °C 34567.7 hPa SW 20.8 km/h 44.1 km/h 46 % 0 mm
13:47 -4.3 °C -11.3 °C 34567.7 hPa SW 15.6 km/h 38.8 km/h 45 % 0 mm
13:52 -4.2 °C -11.4 °C 34554.1 hPa WSW 10.3 km/h 36.2 km/h 44 % 0 mm
13:57 -4.1 °C -11.4 °C 34554.1 hPa SW 33.6 km/h 38.8 km/h 44 % 0 mm
14:02 -4.2 °C -11.4 °C 34554.1 hPa SSW 25.9 km/h 38.8 km/h 44 % 0 mm
14:12 -4.1 °C -11.3 °C 34544 hPa SW 18.2 km/h 41.4 km/h 44 % 0 mm
14:17 -3.9 °C -11.3 °C 34544 hPa SSW 15.6 km/h 41.4 km/h 43 % 0 mm
14:22 -3.9 °C -11.3 °C 34544 hPa SW 28.5 km/h 33.6 km/h 43 % 0 mm
14:27 -3.9 °C -11.4 °C 34544 hPa WSW 5.1 km/h 33.6 km/h 43 % 0 mm
14:32 -3.8 °C -11.3 °C 34533.8 hPa South 25.9 km/h 46.7 km/h 43 % 0 mm
14:42 -3.8 °C -11.4 °C 34533.8 hPa West 7.7 km/h 46.7 km/h 42 % 0 mm
14:52 -3.8 °C -11.4 °C 34533.8 hPa SSW 18.2 km/h 44.1 km/h 42 % 0 mm
15:07 -3.4 °C -11.6 °C 34520.3 hPa SW 12.9 km/h 33.6 km/h 40 % 0 mm
15:12 -3.5 °C -11.6 °C 34520.3 hPa SW 20.8 km/h 33.6 km/h 40 % 0 mm
15:17 -3.5 °C -11.6 °C 34510.1 hPa West 15.6 km/h 38.8 km/h 40 % 0 mm
15:22 -3.4 °C -11.6 °C 34510.1 hPa SSW 25.9 km/h 38.8 km/h 40 % 0 mm
15:27 -3.4 °C -11.6 °C 34510.1 hPa WSW 15.6 km/h 38.8 km/h 40 % 0 mm
15:32 -3.4 °C -11.5 °C 34510.1 hPa WSW 20.8 km/h 36.2 km/h 40 % 0 mm
15:37 -3.4 °C -11.4 °C 34510.1 hPa SW 15.6 km/h 41.4 km/h 41 % 0 mm
15:42 -3.3 °C -11.4 °C 34510.1 hPa WNW 10.3 km/h 41.4 km/h 40 % 0 mm
15:52 -3.3 °C -11.4 °C 34496.6 hPa SW 33.6 km/h 33.6 km/h 40 % 0 mm
15:57 -3.3 °C -11.4 °C 34496.6 hPa SW 25.9 km/h 36.2 km/h 40 % 0 mm
16:02 -3.3 °C -11.4 °C 34496.6 hPa SW 28.5 km/h 38.8 km/h 40 % 0 mm
16:12 -3.3 °C -11.6 °C 34496.6 hPa South 12.9 km/h 38.8 km/h 39 % 0 mm
16:17 -3.2 °C -11.6 °C 34496.6 hPa West 20.8 km/h 36.2 km/h 39 % 0 mm
16:22 -3.2 °C -11.6 °C 34496.6 hPa SW 25.9 km/h 36.2 km/h 39 % 0 mm
16:32 -3.1 °C -11.5 °C 34486.4 hPa SW 18.2 km/h 44.1 km/h 39 % 0 mm
16:37 -3.1 °C -11.4 °C 34486.4 hPa West 31.1 km/h 44.1 km/h 39 % 0 mm
16:42 -3.2 °C -11.6 °C 34476.3 hPa SW 18.2 km/h 33.6 km/h 39 % 0 mm
16:47 -3.1 °C -11.5 °C 34476.3 hPa SW 18.2 km/h 38.8 km/h 39 % 0 mm
16:52 -3.1 °C -11.7 °C 34476.3 hPa WSW 25.9 km/h 38.8 km/h 38 % 0 mm
17:02 -3 °C -11.6 °C 34476.3 hPa SW 28.5 km/h 46.7 km/h 38 % 0 mm
17:12 -3 °C -11.6 °C 34462.7 hPa WSW 12.9 km/h 46.7 km/h 38 % 0 mm
17:17 -3 °C -11.8 °C 34462.7 hPa SSW 25.9 km/h 38.8 km/h 37 % 0 mm
17:22 -3.1 °C -11.9 °C 34462.7 hPa SW 15.6 km/h 44.1 km/h 37 % 0 mm
17:27 -3.1 °C -11.9 °C 34452.6 hPa SW 25.9 km/h 44.1 km/h 37 % 0 mm
17:32 -3.1 °C -11.9 °C 34462.7 hPa WSW 28.5 km/h 44.1 km/h 37 % 0 mm
17:37 -3.1 °C -11.9 °C 34452.6 hPa SSW 23.3 km/h 38.8 km/h 37 % 0 mm
17:42 -3 °C -11.8 °C 34452.6 hPa WSW 25.9 km/h 44.1 km/h 37 % 0 mm
17:47 -3 °C -11.8 °C 34452.6 hPa SW 28.5 km/h 44.1 km/h 37 % 0 mm
17:52 -3 °C -11.8 °C 34452.6 hPa WSW 18.2 km/h 44.1 km/h 37 % 0 mm
17:57 -3.1 °C -11.9 °C 34452.6 hPa WSW 12.9 km/h 44.1 km/h 37 % 0 mm
18:02 -3.1 °C -11.9 °C 34452.6 hPa SW 25.9 km/h 44.1 km/h 37 % 0 mm
18:12 -3.2 °C -12 °C 34452.6 hPa SW 20.8 km/h 41.4 km/h 37 % 0 mm
18:17 -3.2 °C -12 °C 34452.6 hPa SW 12.9 km/h 41.4 km/h 37 % 0 mm
18:22 -3.2 °C -12 °C 34442.4 hPa WSW 25.9 km/h 41.4 km/h 37 % 0 mm
18:32 -3.3 °C -11.8 °C 34452.6 hPa WSW 10.3 km/h 36.2 km/h 38 % 0 mm
18:42 -3.4 °C -11.7 °C 34442.4 hPa SW 20.8 km/h 33.6 km/h 39 % 0 mm
18:52 -3.4 °C -11.8 °C 34442.4 hPa SW 23.3 km/h 36.2 km/h 39 % 0 mm
18:57 -3.5 °C -11.6 °C 34442.4 hPa SSW 10.3 km/h 36.2 km/h 40 % 0 mm
19:02 -3.6 °C -11.7 °C 34442.4 hPa SW 18.2 km/h 36.2 km/h 40 % 0 mm
19:12 -3.8 °C -11.7 °C 34442.4 hPa SSW 7.7 km/h 36.2 km/h 41 % 0 mm
19:22 -3.9 °C -11.6 °C 34442.4 hPa SW 12.9 km/h 25.9 km/h 42 % 0 mm
19:32 -4.3 °C -11.7 °C 34428.8 hPa SW 18.2 km/h 25.9 km/h 43 % 0 mm
19:42 -4.4 °C -11.7 °C 34428.8 hPa SW 5.1 km/h 25.9 km/h 44 % 0 mm
19:47 -4.5 °C -11.7 °C 34428.8 hPa SW 2.6 km/h 23.3 km/h 44 % 0 mm
19:52 -4.6 °C -11.6 °C 34428.8 hPa WSW 5.1 km/h 23.3 km/h 45 % 0 mm
19:57 -4.8 °C -11.8 °C 34428.8 hPa SW 5.1 km/h 18.2 km/h 45 % 0 mm
20:02 -4.9 °C -11.7 °C 34428.8 hPa SW 5.1 km/h 15.6 km/h 46 % 0 mm
20:12 -5 °C -11.6 °C 34428.8 hPa SW 10.3 km/h 12.9 km/h 47 % 0 mm
20:17 -5.1 °C -11.7 °C 34428.8 hPa SW 10.3 km/h 12.9 km/h 47 % 0 mm
20:22 -5.2 °C -11.6 °C 34428.8 hPa SW 10.3 km/h 12.9 km/h 48 % 0 mm
20:27 -5.2 °C -11.7 °C 34428.8 hPa SSW 5.1 km/h 12.9 km/h 48 % 0 mm
20:32 -5.3 °C -11.7 °C 34428.8 hPa West 15.6 km/h 15.6 km/h 48 % 0 mm
20:37 -5.3 °C -11.8 °C 34428.8 hPa SSW 7.7 km/h 15.6 km/h 48 % 0 mm
20:42 -5.4 °C -11.8 °C 34428.8 hPa SW 10.3 km/h 20.8 km/h 48 % 0 mm
20:57 -6.1 °C -11.7 °C 34428.8 hPa SSW 5.1 km/h 18.2 km/h 52 % 0 mm
21:07 -6.5 °C -11.8 °C 34428.8 hPa Calm   10.3 km/h 54 % 0 mm
21:12 -6.6 °C -11.9 °C 34428.8 hPa Calm   10.3 km/h 54 % 0 mm
21:22 -6.8 °C -11.8 °C 34442.4 hPa Calm   5.1 km/h 56 % 0 mm
21:27 -6.9 °C -11.9 °C 34428.8 hPa Calm   5.1 km/h 56 % 0 mm
21:32 -6.8 °C -11.8 °C 34442.4 hPa Calm   2.6 km/h 56 % 0 mm
21:37 -6.9 °C -11.8 °C 34428.8 hPa WNW 5.1 km/h 5.1 km/h 57 % 0 mm
21:42 -7.1 °C -11.9 °C 34442.4 hPa WNW 5.1 km/h 5.1 km/h 57 % 0 mm
21:47 -7.1 °C -11.8 °C 34442.4 hPa Calm   5.1 km/h 58 % 0 mm
21:52 -7.3 °C -11.8 °C 34442.4 hPa Calm   5.1 km/h 59 % 0 mm
21:57 -7.2 °C -11.8 °C 34442.4 hPa Calm   5.1 km/h 59 % 0 mm
22:02 -7.3 °C -11.8 °C 34442.4 hPa Calm   5.1 km/h 59 % 0 mm
22:12 -7.3 °C -11.7 °C 34442.4 hPa Calm     60 % 0 mm
22:17 -7.4 °C -11.8 °C 34442.4 hPa Calm     60 % 0 mm
22:22 -7.6 °C -11.8 °C 34442.4 hPa Calm     61 % 0 mm
22:27 -7.6 °C -11.9 °C 34442.4 hPa Calm     61 % 0 mm
22:32 -7.7 °C -11.9 °C 34442.4 hPa Calm     61 % 0 mm
22:37 -7.9 °C -12 °C 34442.4 hPa Calm     62 % 0 mm
22:42 -7.9 °C -11.9 °C 34442.4 hPa Calm     63 % 0 mm
22:47 -7.8 °C -11.9 °C 34442.4 hPa Calm     62 % 0 mm
22:57 -8 °C -12.1 °C 34442.4 hPa Calm     62 % 0 mm
23:02 -8.1 °C -12.1 °C 34442.4 hPa Calm     63 % 0 mm
23:07 -8.2 °C -12 °C 34442.4 hPa Calm     64 % 0 mm
23:17 -8.3 °C -12.1 °C 34428.8 hPa Calm     64 % 0 mm
23:22 -8.4 °C -12.1 °C 34428.8 hPa Calm     65 % 0 mm
23:32 -8.7 °C -12.2 °C 34428.8 hPa Calm     66 % 0 mm
23:37 -8.7 °C -12.2 °C 34428.8 hPa Calm     66 % 0 mm
23:42 -8.7 °C -12.3 °C 34428.8 hPa Calm     66 % 0 mm
23:47 -8.9 °C -12.3 °C 34428.8 hPa Calm     67 % 0 mm
23:52 -9 °C -12.3 °C 34428.8 hPa Calm     68 % 0 mm
23:57 -9.1 °C -12.3 °C 34418.7 hPa Calm     68 % 0 mm
Meteo18
Compliments of Weather Underground - 4 mb

Script developed by  Jim McMurry - jmcmurry@mwt.net Adapted for the template by  Wim van der Kuil - Leuven-Template.eu

You find our weather info also at:

European Weather Network

Weather Underground

Equipment we use:

Weather-station
Davis Vue

Weather-program
Meteobridge

Weather-server
Raspberry PI 2 B+

Provider
1 and 1

Davis Vue

Meteobridge

Raspberry PI 2 B+

1 and 1